createdAt,value
2019-02-05T00:01:35.455Z,100125.97
2019-02-05T00:04:05.499Z,100110.16
2019-02-05T00:06:34.604Z,100096.52
2019-02-05T00:09:04.841Z,100105.30
2019-02-05T00:11:34.115Z,100104.48
2019-02-05T00:14:03.203Z,100108.59
2019-02-05T00:16:32.295Z,100109.27
2019-02-05T00:19:01.564Z,100111.02
2019-02-05T00:21:30.658Z,100112.80
2019-02-05T00:23:59.828Z,100104.33
2019-02-05T00:26:31.183Z,100103.07
2019-02-05T00:29:00.265Z,100100.40
2019-02-05T00:31:29.451Z,100097.89
2019-02-05T00:33:58.517Z,100104.09
2019-02-05T00:36:27.685Z,100106.89
2019-02-05T00:38:56.747Z,100105.77
2019-02-05T00:41:25.935Z,100098.28
2019-02-05T00:43:55.015Z,100105.03
2019-02-05T00:46:24.148Z,100095.59
2019-02-05T00:48:55.535Z,100097.70
2019-02-05T00:51:25.929Z,100103.95
2019-02-05T00:53:55.160Z,100109.05
2019-02-05T00:56:24.823Z,100107.17
2019-02-05T00:58:53.980Z,100103.45
2019-02-05T01:01:25.253Z,100099.60
2019-02-05T01:03:54.295Z,100100.69
2019-02-05T01:06:25.816Z,100109.11
2019-02-05T01:08:57.207Z,100097.56
2019-02-05T01:11:26.373Z,100094.95
2019-02-05T01:13:55.600Z,100093.81
2019-02-05T01:16:25.957Z,100095.64
2019-02-05T01:18:55.026Z,100091.63
2019-02-05T01:21:26.520Z,100086.45
2019-02-05T01:23:55.740Z,100085.53
2019-02-05T01:26:29.401Z,100090.14
2019-02-05T01:28:55.771Z,100093.66
2019-02-05T01:31:24.830Z,100096.05
2019-02-05T01:33:53.952Z,100103.59
2019-02-05T01:36:23.067Z,100103.05
2019-02-05T01:38:54.188Z,100093.84
2019-02-05T01:41:23.298Z,100089.09
2019-02-05T01:43:52.804Z,100085.73
2019-02-05T01:46:21.879Z,100076.95
2019-02-05T01:48:50.979Z,100082.02
2019-02-05T01:51:22.270Z,100077.03
2019-02-05T01:53:51.384Z,100077.23
2019-02-05T01:56:20.466Z,100075.25
2019-02-05T01:58:49.952Z,100072.09
2019-02-05T02:01:19.024Z,100075.17
2019-02-05T02:03:48.080Z,100069.40
2019-02-05T02:06:17.199Z,100076.36
2019-02-05T02:08:46.334Z,100086.00
2019-02-05T02:11:17.243Z,100098.19
2019-02-05T02:13:46.588Z,100090.48
2019-02-05T02:16:15.727Z,100090.47
2019-02-05T02:18:44.892Z,100090.89
2019-02-05T02:21:13.953Z,100092.05
2019-02-05T02:23:45.133Z,100088.47
2019-02-05T02:26:14.221Z,100093.95
2019-02-05T02:28:43.422Z,100093.45
2019-02-05T02:31:12.468Z,100098.73
2019-02-05T02:33:41.634Z,100090.97
2019-02-05T02:36:11.866Z,100084.86
2019-02-05T02:38:40.953Z,100082.25
2019-02-05T02:41:10.062Z,100090.00
2019-02-05T02:43:39.451Z,100082.44
2019-02-05T02:46:08.570Z,100081.68
2019-02-05T02:48:38.183Z,100077.19
2019-02-05T02:51:07.294Z,100076.27
2019-02-05T02:53:38.347Z,100075.38
2019-02-05T02:56:07.462Z,100063.20
2019-02-05T02:58:36.557Z,100065.49
2019-02-05T03:01:05.682Z,100060.78
2019-02-05T03:03:37.890Z,100065.70
2019-02-05T03:06:06.950Z,100065.06
2019-02-05T03:08:36.064Z,100066.21
2019-02-05T03:11:05.344Z,100072.73
2019-02-05T03:13:35.141Z,100076.14
2019-02-05T03:16:04.809Z,100074.58
2019-02-05T03:18:33.879Z,100077.37
2019-02-05T03:21:03.009Z,100076.25
2019-02-05T03:23:33.297Z,100081.72
2019-02-05T03:26:02.351Z,100084.33
2019-02-05T03:28:31.416Z,100079.97
2019-02-05T03:31:03.498Z,100075.55
2019-02-05T03:33:33.903Z,100087.33
2019-02-05T03:36:02.988Z,100093.77
2019-02-05T03:38:32.065Z,100092.86
2019-02-05T03:41:04.595Z,100090.43
2019-02-05T03:43:35.805Z,100088.40
2019-02-05T03:46:24.753Z,100090.57
2019-02-05T03:48:53.804Z,100091.72
2019-02-05T03:52:07.284Z,100090.78
2019-02-05T03:55:16.390Z,100086.70
2019-02-05T03:58:22.353Z,100094.41
2019-02-05T04:01:20.402Z,100093.75
2019-02-05T04:04:14.504Z,100095.09
2019-02-05T04:07:19.468Z,100094.03
2019-02-05T04:10:29.001Z,100098.93
2019-02-05T04:13:21.855Z,100107.86
2019-02-05T04:16:37.231Z,100107.19
2019-02-05T04:19:35.113Z,100110.30
2019-02-05T04:22:37.735Z,100105.98
2019-02-05T04:25:31.987Z,100105.09
2019-02-05T04:28:30.509Z,100100.23
2019-02-05T04:31:53.863Z,100106.72
2019-02-05T04:34:53.365Z,100105.41
2019-02-05T04:37:52.970Z,100112.73
2019-02-05T04:40:36.731Z,100118.84
2019-02-05T04:43:50.052Z,100119.58
2019-02-05T04:46:36.861Z,100124.52
2019-02-05T04:49:54.951Z,100122.98
2019-02-05T04:53:14.670Z,100123.81
2019-02-05T04:56:10.164Z,100132.33
2019-02-05T04:59:14.773Z,100132.06
2019-02-05T05:02:26.030Z,100126.35
2019-02-05T05:05:26.456Z,100122.30
2019-02-05T05:08:17.398Z,100124.01
2019-02-05T05:10:46.485Z,100124.38
2019-02-05T05:13:17.608Z,100119.17
2019-02-05T05:15:46.713Z,100126.48
2019-02-05T05:18:15.864Z,100120.32
2019-02-05T05:20:44.933Z,100123.45
2019-02-05T05:23:16.956Z,100126.05
2019-02-05T05:25:46.026Z,100119.55
2019-02-05T05:28:15.147Z,100120.60
2019-02-05T05:30:44.358Z,100121.56
2019-02-05T05:33:13.740Z,100129.33
2019-02-05T05:35:44.584Z,100129.80
2019-02-05T05:38:13.846Z,100125.05
2019-02-05T05:40:43.005Z,100126.97
2019-02-05T05:43:12.153Z,100121.67
2019-02-05T05:45:43.785Z,100123.90
2019-02-05T05:48:13.284Z,100132.11
2019-02-05T05:50:42.364Z,100137.05
2019-02-05T05:53:11.477Z,100137.17
2019-02-05T05:55:40.653Z,100138.47
2019-02-05T05:58:21.953Z,99632.36
2019-02-05T06:00:40.580Z,100133.39
2019-02-05T06:03:09.663Z,100140.20
2019-02-05T06:05:38.777Z,100143.53
2019-02-05T06:08:07.875Z,100145.44
2019-02-05T06:10:36.979Z,100078.88
2019-02-05T06:13:06.191Z,100140.11
2019-02-05T06:15:35.970Z,100150.88
2019-02-05T06:18:05.286Z,100146.45
2019-02-05T06:20:34.710Z,100153.67
2019-02-05T06:23:03.820Z,100155.45
2019-02-05T06:25:33.199Z,100158.08
2019-02-05T06:28:05.154Z,100157.16
2019-02-05T06:30:34.319Z,100162.61
2019-02-05T06:33:03.580Z,100167.16
2019-02-05T06:35:33.063Z,100171.12
2019-02-05T06:38:03.331Z,100180.25
2019-02-05T06:40:33.019Z,100179.02
2019-02-05T06:43:02.109Z,100176.44
2019-02-05T06:45:31.217Z,100177.77
2019-02-05T06:48:00.347Z,100179.72
2019-02-05T06:50:29.488Z,100179.40
2019-02-05T06:52:58.626Z,100172.44
2019-02-05T06:55:32.459Z,100176.17
2019-02-05T06:58:01.873Z,100174.63
2019-02-05T07:00:33.404Z,100181.14
2019-02-05T07:03:02.500Z,100183.22
2019-02-05T07:05:32.862Z,100184.06
2019-02-05T07:08:03.004Z,100183.13
2019-02-05T07:10:32.187Z,100184.44
2019-02-05T07:13:01.305Z,100183.14
2019-02-05T07:15:30.438Z,100192.54
2019-02-05T07:17:59.558Z,100195.41
2019-02-05T07:20:31.010Z,100193.46
2019-02-05T07:23:01.247Z,100189.48
2019-02-05T07:25:30.386Z,100189.37
2019-02-05T07:27:59.463Z,100199.40
2019-02-05T07:30:30.387Z,100196.00
2019-02-05T07:32:59.608Z,100202.52
2019-02-05T07:35:28.720Z,100208.37
2019-02-05T07:37:58.211Z,100204.64
2019-02-05T07:40:27.327Z,100214.81
2019-02-05T07:42:56.513Z,100216.83
2019-02-05T07:45:25.700Z,100221.80
2019-02-05T07:47:54.844Z,100226.34
2019-02-05T07:50:25.312Z,100228.71
2019-02-05T07:52:56.487Z,100225.17
2019-02-05T07:55:27.499Z,100230.25
2019-02-05T07:57:56.649Z,100231.02
2019-02-05T08:00:27.343Z,100235.17
2019-02-05T08:02:56.443Z,100235.67
2019-02-05T08:05:28.356Z,100239.41
2019-02-05T08:07:57.587Z,100248.58
2019-02-05T08:10:26.664Z,100249.97
2019-02-05T08:12:55.972Z,100247.84
2019-02-05T08:15:27.176Z,100246.59
2019-02-05T08:17:56.342Z,100244.64
2019-02-05T08:20:25.504Z,100241.68
2019-02-05T08:22:54.696Z,100235.95
2019-02-05T08:25:23.769Z,100231.38
2019-02-05T08:27:53.129Z,100234.47
2019-02-05T08:30:28.234Z,100242.33
2019-02-05T08:32:57.360Z,100244.39
2019-02-05T08:35:28.016Z,100232.73
2019-02-05T08:38:01.346Z,100235.88
2019-02-05T08:40:30.474Z,100229.33
2019-02-05T08:42:59.623Z,100232.87
2019-02-05T08:45:30.463Z,100234.70
2019-02-05T08:47:59.640Z,100233.51
2019-02-05T08:50:29.243Z,100226.04
2019-02-05T08:52:58.417Z,100224.60
2019-02-05T08:55:30.652Z,100145.19
2019-02-05T08:58:00.641Z,100237.27
2019-02-05T09:00:31.971Z,100237.34
2019-02-05T09:03:01.150Z,100244.03
2019-02-05T09:05:31.457Z,100243.37
2019-02-05T09:08:00.558Z,100249.16
2019-02-05T09:10:31.765Z,100258.33
2019-02-05T09:13:01.912Z,100259.31
2019-02-05T09:15:33.071Z,100261.72
2019-02-05T09:18:02.229Z,100257.46
2019-02-05T09:20:31.420Z,100251.81
2019-02-05T09:23:01.651Z,100256.84
2019-02-05T09:25:30.775Z,100255.64
2019-02-05T09:28:01.632Z,100248.42
2019-02-05T09:30:32.497Z,100257.34
2019-02-05T09:33:03.414Z,100254.02
2019-02-05T09:35:35.040Z,100254.42
2019-02-05T09:38:04.113Z,100252.44
2019-02-05T09:40:34.220Z,100258.15
2019-02-05T09:43:03.313Z,100262.25
2019-02-05T09:45:32.565Z,100268.52
2019-02-05T09:48:03.080Z,100271.57
2019-02-05T09:50:43.763Z,100267.75
2019-02-05T09:53:03.102Z,100272.03
2019-02-05T09:55:32.369Z,100273.05
2019-02-05T09:58:02.596Z,100276.61
2019-02-05T10:00:33.964Z,100276.80
2019-02-05T10:03:03.050Z,100277.56
2019-02-05T10:05:32.721Z,100286.64
2019-02-05T10:08:01.916Z,100282.64
2019-02-05T10:10:31.129Z,100285.84
2019-02-05T10:13:00.291Z,100282.28
2019-02-05T10:15:35.453Z,100282.38
2019-02-05T10:18:06.626Z,100291.52
2019-02-05T10:20:35.709Z,100285.84
2019-02-05T10:23:06.445Z,100285.13
2019-02-05T10:25:39.409Z,100278.75
2019-02-05T10:28:08.507Z,100280.04
2019-02-05T10:30:40.007Z,100290.91
2019-02-05T10:33:09.512Z,100286.35
2019-02-05T10:35:38.624Z,100292.35
2019-02-05T10:38:07.898Z,100292.34
2019-02-05T10:40:37.128Z,100295.30
2019-02-05T10:43:07.379Z,100287.72
2019-02-05T10:45:37.017Z,100284.67
2019-02-05T10:48:07.582Z,100284.05
2019-02-05T10:50:36.613Z,100280.58
2019-02-05T10:53:05.838Z,100279.30
2019-02-05T10:55:35.026Z,100283.30
2019-02-05T10:58:04.332Z,100281.34
2019-02-05T11:00:34.509Z,100280.70
2019-02-05T11:03:04.529Z,100286.62
2019-02-05T11:05:33.646Z,100281.58
2019-02-05T11:08:02.804Z,100280.09
2019-02-05T11:10:31.866Z,100274.41
2019-02-05T11:13:00.983Z,100280.28
2019-02-05T11:15:31.796Z,100277.08
2019-02-05T11:18:01.312Z,100260.06
2019-02-05T11:20:30.784Z,100261.20
2019-02-05T11:23:00.111Z,100255.33
2019-02-05T11:25:31.025Z,100245.23
2019-02-05T11:28:02.396Z,100240.13
2019-02-05T11:30:39.547Z,100239.48
2019-02-05T11:33:08.640Z,100236.09
2019-02-05T11:35:38.991Z,100238.52
2019-02-05T11:38:08.506Z,100239.33
2019-02-05T11:40:40.135Z,100241.35
2019-02-05T11:43:10.213Z,100245.06
2019-02-05T11:45:42.492Z,100245.80
2019-02-05T11:48:14.393Z,100249.03
2019-02-05T11:50:43.503Z,100247.59
2019-02-05T11:53:12.628Z,100245.09
2019-02-05T11:55:41.716Z,100241.22
2019-02-05T11:58:10.792Z,100236.88
2019-02-05T12:00:58.840Z,100227.68
2019-02-05T12:03:28.006Z,100237.48
2019-02-05T12:05:57.095Z,100233.71
2019-02-05T12:08:28.550Z,100241.46
2019-02-05T12:10:57.698Z,100233.70
2019-02-05T12:13:26.795Z,100228.05
2019-02-05T12:15:55.861Z,100228.60
2019-02-05T12:18:27.627Z,100224.00
2019-02-05T12:21:00.874Z,100224.54
2019-02-05T12:23:29.999Z,100222.67
2019-02-05T12:26:02.576Z,100218.10
2019-02-05T12:28:31.792Z,100213.50
2019-02-05T12:31:00.913Z,100215.76
2019-02-05T12:33:30.250Z,100214.98
2019-02-05T12:36:00.379Z,100210.73
2019-02-05T12:38:29.738Z,100218.31
2019-02-05T12:40:58.776Z,100211.34
2019-02-05T12:43:27.942Z,100217.55
2019-02-05T12:45:57.021Z,100211.33
2019-02-05T12:48:26.558Z,100209.62
2019-02-05T12:50:55.623Z,100211.64
2019-02-05T12:53:26.257Z,100206.59
2019-02-05T12:55:55.312Z,100203.06
2019-02-05T12:58:24.418Z,100201.36
2019-02-05T13:00:59.557Z,100205.83
2019-02-05T13:03:25.171Z,100204.13
2019-02-05T13:05:54.228Z,100203.01
2019-02-05T13:08:23.288Z,100205.48
2019-02-05T13:10:53.368Z,100192.25
2019-02-05T13:13:22.412Z,100193.19
2019-02-05T13:15:51.667Z,100192.52
2019-02-05T13:18:21.225Z,100191.27
2019-02-05T13:20:50.372Z,100190.64
2019-02-05T13:23:19.442Z,100191.86
2019-02-05T13:25:48.552Z,100187.98
2019-02-05T13:28:17.615Z,100184.59
2019-02-05T13:30:46.691Z,100180.18
2019-02-05T13:33:16.903Z,100185.30
2019-02-05T13:35:46.037Z,100178.12
2019-02-05T13:38:16.658Z,100177.34
2019-02-05T13:40:45.819Z,100177.07
2019-02-05T13:43:14.895Z,100182.23
2019-02-05T13:45:43.996Z,100184.22
2019-02-05T13:48:13.397Z,100192.23
2019-02-05T13:50:42.604Z,100185.25
2019-02-05T13:53:11.679Z,100186.48
2019-02-05T13:55:42.707Z,100186.06
2019-02-05T13:58:12.691Z,100181.62
2019-02-05T14:00:47.389Z,100186.16
2019-02-05T14:03:16.630Z,100187.53
2019-02-05T14:05:47.138Z,100188.25
2019-02-05T14:08:16.224Z,100186.30
2019-02-05T14:10:45.700Z,100184.13
2019-02-05T14:13:14.979Z,100191.89
2019-02-05T14:15:45.582Z,100198.30
2019-02-05T14:18:14.796Z,100198.10
2019-02-05T14:20:44.036Z,100198.00
2019-02-05T14:23:13.146Z,100194.89
2019-02-05T14:25:44.286Z,100198.02
2019-02-05T14:28:13.362Z,100197.92
2019-02-05T14:30:50.711Z,100201.77
2019-02-05T14:33:19.838Z,100199.06
2019-02-05T14:35:48.946Z,100197.94
2019-02-05T14:38:18.053Z,100191.02
2019-02-05T14:40:47.154Z,100183.86
2019-02-05T14:43:16.215Z,100189.42
2019-02-05T14:45:45.873Z,100176.67
2019-02-05T14:48:16.749Z,100173.44
2019-02-05T14:50:46.730Z,100169.39
2019-02-05T14:53:15.814Z,100172.13
2019-02-05T14:55:44.883Z,100174.52
2019-02-05T14:58:15.259Z,100175.63
2019-02-05T15:00:46.653Z,100170.14
2019-02-05T15:03:16.121Z,100168.55
2019-02-05T15:05:49.351Z,100170.62
2019-02-05T15:08:19.546Z,100171.17
2019-02-05T15:10:49.120Z,100177.42
2019-02-05T15:13:18.819Z,100174.56
2019-02-05T15:15:48.028Z,100179.84
2019-02-05T15:18:19.326Z,100178.53
2019-02-05T15:20:49.628Z,100186.41
2019-02-05T15:23:18.698Z,100184.97
2019-02-05T15:25:47.842Z,100182.27
2019-02-05T15:28:16.971Z,100181.04
2019-02-05T15:30:46.091Z,100179.63
2019-02-05T15:33:41.992Z,100189.91
2019-02-05T15:36:20.572Z,100181.11
2019-02-05T15:38:49.701Z,100189.24
2019-02-05T15:41:18.811Z,100194.67
2019-02-05T15:43:47.907Z,100193.28
2019-02-05T15:46:18.182Z,100192.69
2019-02-05T15:48:47.513Z,100184.27
2019-02-05T15:51:16.616Z,100183.98
2019-02-05T15:53:49.037Z,100189.11
2019-02-05T15:56:19.737Z,100188.00
2019-02-05T15:58:48.810Z,100182.64
2019-02-05T16:01:17.847Z,100183.22
2019-02-05T16:03:49.745Z,100182.55
2019-02-05T16:06:21.983Z,100183.93
2019-02-05T16:08:51.053Z,100187.16
2019-02-05T16:11:20.132Z,100192.66
2019-02-05T16:13:50.413Z,100186.00
2019-02-05T16:16:20.114Z,100199.30
2019-02-05T16:18:49.331Z,100201.45
2019-02-05T16:21:18.450Z,100210.39
2019-02-05T16:23:47.565Z,100209.07
2019-02-05T16:26:17.840Z,100208.61
2019-02-05T16:28:46.924Z,100212.38
2019-02-05T16:31:18.075Z,100204.27
2019-02-05T16:33:47.113Z,100210.13
2019-02-05T16:36:16.225Z,100201.25
2019-02-05T16:38:46.457Z,100202.55
2019-02-05T16:41:15.572Z,100202.09
2019-02-05T16:43:49.933Z,100203.42
2019-02-05T16:46:19.288Z,100205.63
2019-02-05T16:48:48.410Z,100202.12
2019-02-05T16:51:19.829Z,100212.76
2019-02-05T16:53:48.911Z,100205.34
2019-02-05T16:56:18.300Z,100208.18
2019-02-05T16:58:47.461Z,100213.29
2019-02-05T17:01:16.900Z,100217.55
2019-02-05T17:03:46.058Z,100211.73
2019-02-05T17:06:15.297Z,100217.30
2019-02-05T17:08:48.476Z,100212.41
2019-02-05T17:11:17.538Z,100210.48
2019-02-05T17:13:46.675Z,100213.00
2019-02-05T17:16:16.938Z,100212.28
2019-02-05T17:18:46.098Z,100226.08
2019-02-05T17:21:15.184Z,100214.19
2019-02-05T17:23:44.293Z,100220.98
2019-02-05T17:26:13.352Z,100219.59
2019-02-05T17:28:42.578Z,100223.72
2019-02-05T17:31:12.102Z,100222.97
2019-02-05T17:33:41.283Z,100225.81
2019-02-05T17:36:11.088Z,100226.85
2019-02-05T17:38:42.503Z,100225.48
2019-02-05T17:41:11.595Z,100225.48
2019-02-05T17:43:40.676Z,100224.94
2019-02-05T17:46:09.723Z,100222.13
2019-02-05T17:48:38.770Z,100218.20
2019-02-05T17:51:07.868Z,100222.84
2019-02-05T17:53:36.937Z,100106.60
2019-02-05T17:56:06.049Z,100222.37
2019-02-05T17:58:35.152Z,100222.77
2019-02-05T18:01:15.462Z,100229.30
2019-02-05T18:03:45.012Z,100228.77
2019-02-05T18:06:16.570Z,100234.13
2019-02-05T18:08:45.853Z,100233.01
2019-02-05T18:11:14.947Z,100240.93
2019-02-05T18:13:46.579Z,100236.52
2019-02-05T18:16:17.821Z,100240.59
2019-02-05T18:18:53.389Z,100228.33
2019-02-05T18:21:24.115Z,100233.41
2019-02-05T18:23:53.134Z,100232.68
2019-02-05T18:26:24.845Z,100233.55
2019-02-05T18:28:53.909Z,100235.41
2019-02-05T18:31:25.027Z,100235.89
2019-02-05T18:33:54.044Z,100233.75
2019-02-05T18:36:24.327Z,100239.59
2019-02-05T18:38:53.650Z,100241.19
2019-02-05T18:41:22.759Z,100238.35
2019-02-05T18:43:51.871Z,100241.81
2019-02-05T18:46:20.978Z,100238.77
2019-02-05T18:48:50.084Z,100239.12
2019-02-05T18:51:19.213Z,100239.52
2019-02-05T18:53:48.272Z,100239.70
2019-02-05T18:56:17.387Z,100245.41
2019-02-05T18:58:46.534Z,100243.58
2019-02-05T19:01:15.690Z,100238.88
2019-02-05T19:03:44.869Z,100247.94
2019-02-05T19:06:13.981Z,100249.45
2019-02-05T19:08:43.057Z,100248.45
2019-02-05T19:11:12.526Z,100254.34
2019-02-05T19:13:41.655Z,100247.98
2019-02-05T19:16:10.813Z,100245.55
2019-02-05T19:18:39.958Z,100253.00
2019-02-05T19:21:09.062Z,100252.38
2019-02-05T19:23:38.210Z,100252.63
2019-02-05T19:26:17.356Z,100248.45
2019-02-05T19:28:48.709Z,100250.48
2019-02-05T19:31:38.728Z,100252.12
2019-02-05T19:34:08.213Z,100253.94
2019-02-05T19:36:37.335Z,100252.23
2019-02-05T19:39:08.092Z,100247.41
2019-02-05T19:41:37.195Z,100255.20
2019-02-05T19:44:06.347Z,100249.71
2019-02-05T19:46:50.419Z,100256.41
2019-02-05T19:49:43.730Z,100252.05
2019-02-05T19:52:12.764Z,100252.53
2019-02-05T19:54:41.842Z,100251.14
2019-02-05T19:57:10.973Z,100252.92
2019-02-05T19:59:41.334Z,100255.50
2019-02-05T20:02:10.410Z,100255.89
2019-02-05T20:04:39.589Z,100256.80
2019-02-05T20:07:08.689Z,100252.81
2019-02-05T20:09:37.760Z,100252.41
2019-02-05T20:12:09.095Z,100247.75
2019-02-05T20:14:40.041Z,100242.98
2019-02-05T20:17:19.567Z,100243.14
2019-02-05T20:19:49.985Z,100240.45
2019-02-05T20:22:19.093Z,100242.20
2019-02-05T20:24:48.226Z,100242.98
2019-02-05T20:27:17.341Z,100236.48
2019-02-05T20:29:46.799Z,100231.70
2019-02-05T20:32:15.936Z,100235.03
2019-02-05T20:34:45.098Z,100070.28
2019-02-05T20:37:14.514Z,100238.08
2019-02-05T20:39:43.682Z,100227.86
2019-02-05T20:42:13.062Z,100246.63
2019-02-05T20:44:42.214Z,100235.83
2019-02-05T20:47:14.308Z,100237.13
2019-02-05T20:49:46.426Z,100233.82
2019-02-05T20:52:15.974Z,100227.80
2019-02-05T20:54:45.878Z,100231.04
2019-02-05T20:57:15.585Z,100230.05
2019-02-05T20:59:45.294Z,100230.53
2019-02-05T21:02:14.866Z,100229.38
2019-02-05T21:04:48.601Z,100227.71
2019-02-05T21:07:17.272Z,100238.66
2019-02-05T21:09:48.859Z,100232.88
2019-02-05T21:12:17.944Z,100234.47
2019-02-05T21:14:50.276Z,100231.27
2019-02-05T21:17:19.636Z,100222.64
2019-02-05T21:19:48.770Z,100233.13
2019-02-05T21:22:17.906Z,100238.16
2019-02-05T21:24:47.036Z,100239.30
2019-02-05T21:27:16.081Z,100240.07
2019-02-05T21:29:45.217Z,100234.39
2019-02-05T21:32:15.789Z,100242.00
2019-02-05T21:34:44.913Z,100247.70
2019-02-05T21:37:14.050Z,100247.98
2019-02-05T21:39:43.153Z,100242.30
2019-02-05T21:42:12.215Z,100237.91
2019-02-05T21:44:42.514Z,100241.31
2019-02-05T21:47:11.964Z,100237.36
2019-02-05T21:49:41.094Z,100245.48
2019-02-05T21:52:12.429Z,100243.75
2019-02-05T21:54:42.902Z,100247.47
2019-02-05T21:57:12.122Z,100244.89
2019-02-05T21:59:41.285Z,100244.80
2019-02-05T22:02:10.498Z,100239.58
2019-02-05T22:04:39.661Z,100244.98
2019-02-05T22:07:08.739Z,100244.09
2019-02-05T22:09:37.932Z,100237.91
2019-02-05T22:12:10.421Z,100244.66
2019-02-05T22:14:41.131Z,100244.89
2019-02-05T22:17:10.537Z,100234.39
2019-02-05T22:19:41.278Z,100236.03
2019-02-05T22:22:10.386Z,100239.58
2019-02-05T22:24:39.460Z,100236.04
2019-02-05T22:27:08.918Z,100232.96
2019-02-05T22:29:38.143Z,100238.91
2019-02-05T22:32:07.164Z,100241.52
2019-02-05T22:34:39.250Z,100240.72
2019-02-05T22:37:07.106Z,100238.48
2019-02-05T22:39:38.181Z,100238.55
2019-02-05T22:42:07.381Z,100238.91
2019-02-05T22:44:38.101Z,100239.19
2019-02-05T22:47:08.291Z,100236.80
2019-02-05T22:49:38.843Z,100235.67
2019-02-05T22:52:07.951Z,100232.63
2019-02-05T22:54:37.012Z,100226.58
2019-02-05T22:57:06.165Z,100235.80
2019-02-05T22:59:37.413Z,100232.82
2019-02-05T23:02:06.951Z,100229.02
2019-02-05T23:05:23.012Z,100225.83
2019-02-05T23:07:52.160Z,100222.33
2019-02-05T23:10:49.132Z,100223.91
2019-02-05T23:13:19.840Z,100224.24
2019-02-05T23:15:50.434Z,100226.54
2019-02-05T23:18:19.693Z,100229.86
2019-02-05T23:20:48.744Z,100222.84
2019-02-05T23:23:17.901Z,100230.33
2019-02-05T23:25:46.970Z,100223.34
2019-02-05T23:28:16.064Z,100224.38
2019-02-05T23:30:45.217Z,100224.93
2019-02-05T23:33:14.464Z,100225.20
2019-02-05T23:35:43.557Z,100220.83
2019-02-05T23:38:12.653Z,100216.02
2019-02-05T23:40:41.738Z,100216.19
2019-02-05T23:43:10.791Z,100210.26
2019-02-05T23:45:39.935Z,100207.66
2019-02-05T23:48:09.311Z,100211.03
2019-02-05T23:50:40.730Z,100217.42
2019-02-05T23:53:09.889Z,100219.72
2019-02-05T23:55:39.010Z,100214.02
2019-02-05T23:58:08.139Z,100218.84
